.
WxDataArchive / Data Records for 2013-08-02
2013-08-01 August 2013 2013-08-03

Data Records for Friday, 02 August 2013

Time	Temp	Chill	HIndex	Humid	Dewpt	 Wind 	HiWind	WindDir	Rain 	Barom 
-----	----	-----	------	-----	-----	------	------	-------	-----	----- 
00:00	61.5	61.5	61.5	77	54.2	0	0	---	0.00	29.947 
00:05	61.3	61.3	61.3	77	54.0	0	0	---	0.00	29.947 
00:10	61.2	61.2	61.2	78	54.3	0	0	---	0.00	29.947 
00:15	61.0	61.0	61.0	79	54.4	0	0	---	0.00	29.944 
00:20	60.9	60.9	60.9	79	54.3	0	0	---	0.00	29.944 
00:25	60.7	60.7	60.7	80	54.5	0	0	---	0.00	29.944 
00:30	60.5	60.5	60.5	80	54.3	0	0	---	0.00	29.949 
00:35	60.4	60.4	60.4	80	54.2	0	0	---	0.00	29.949 
00:40	60.2	60.2	60.2	81	54.3	0	0	---	0.00	29.949 
00:45	60.1	60.1	60.1	81	54.2	0	0	---	0.00	29.954 
00:50	59.9	59.9	59.9	81	54.1	0	0	---	0.00	29.954 
00:55	59.8	59.8	59.8	81	54.0	0	0	---	0.00	29.954 
01:00	59.6	59.6	59.6	82	54.1	0	0	---	0.00	29.957 
01:05	59.6	59.6	59.6	82	54.1	0	0	---	0.00	29.957 
01:10	59.5	59.5	59.5	82	54.0	0	0	---	0.00	29.957 
01:15	59.3	59.3	59.3	82	53.8	0	0	---	0.00	29.960 
01:20	59.2	59.2	59.2	83	54.0	0	0	---	0.00	29.960 
01:25	59.0	59.0	59.0	83	53.8	0	0	---	0.00	29.960 
01:30	58.9	58.9	58.9	83	53.7	0	0	---	0.00	29.959 
01:35	58.9	58.9	58.9	84	54.1	0	0	---	0.00	29.959 
01:40	58.7	58.7	58.7	84	53.9	0	0	---	0.00	29.959 
01:45	58.6	58.6	58.6	84	53.8	0	0	---	0.00	29.947 
01:50	58.6	58.6	58.6	84	53.8	0	0	---	0.00	29.947 
01:55	58.4	58.4	58.4	84	53.6	0	0	---	0.00	29.947 
02:00	58.4	58.4	58.4	85	53.9	0	0	---	0.00	29.944 
02:05	58.3	58.3	58.3	85	53.8	0	0	---	0.00	29.944 
02:10	58.1	58.1	58.1	85	53.6	0	0	---	0.00	29.944 
02:15	58.0	58.0	58.0	85	53.5	0	0	---	0.00	29.940 
02:20	57.8	57.8	57.8	86	53.6	0	0	---	0.00	29.940 
02:25	57.6	57.6	57.6	86	53.4	0	0	---	0.00	29.940 
02:30	57.5	57.5	57.5	86	53.3	0	0	---	0.00	29.936 
02:35	57.5	57.5	57.5	87	53.7	0	0	---	0.00	29.936 
02:40	57.3	57.3	57.3	87	53.5	0	0	---	0.00	29.936 
02:45	57.2	57.2	57.2	87	53.4	0	0	---	0.00	29.939 
02:50	57.0	57.0	57.0	87	53.2	0	0	---	0.00	29.939 
02:55	57.0	57.0	57.0	88	53.5	0	0	---	0.00	29.939 
03:00	56.9	56.9	56.9	88	53.4	0	0	---	0.00	29.935 
03:05	56.7	56.7	56.7	88	53.2	0	0	---	0.00	29.935 
03:10	56.6	56.6	56.6	88	53.1	0	0	---	0.00	29.935 
03:15	56.5	56.5	56.5	88	53.0	0	0	---	0.00	29.929 
03:20	56.3	56.3	56.3	88	52.8	0	0	---	0.00	29.929 
03:25	56.3	56.3	56.3	89	53.1	0	1	315	0.00	29.929 
03:30	56.3	56.3	56.3	89	53.1	0	0	---	0.00	29.930 
03:35	56.3	56.3	56.3	89	53.1	0	0	---	0.00	29.930 
03:40	56.3	56.3	56.3	89	53.1	0	0	---	0.00	29.930 
03:45	56.3	56.3	56.3	90	53.4	0	0	---	0.00	29.931 
03:50	56.3	56.3	56.3	90	53.4	0	0	---	0.00	29.931 
03:55	56.2	56.2	56.2	90	53.3	0	0	---	0.00	29.931 
04:00	56.2	56.2	56.2	90	53.3	0	0	---	0.00	29.934 
04:05	56.2	56.2	56.2	90	53.3	0	0	---	0.00	29.934 
04:10	56.0	56.0	56.0	90	53.1	0	0	---	0.00	29.934 
04:15	55.9	55.9	55.9	90	53.0	0	0	---	0.00	29.929 
04:20	55.9	55.9	55.9	90	53.0	0	0	---	0.00	29.929 
04:25	55.7	55.7	55.7	90	52.8	0	0	---	0.00	29.929 
04:30	55.6	55.6	55.6	90	52.7	0	0	---	0.00	29.927 
04:35	55.4	55.4	55.4	90	52.5	0	0	---	0.00	29.927 
04:40	55.4	55.4	55.4	91	52.8	0	0	---	0.00	29.927 
04:45	55.3	55.3	55.3	91	52.7	0	0	---	0.00	29.926 
04:50	55.3	55.3	55.3	91	52.7	0	0	---	0.00	29.926 
04:55	55.3	55.3	55.3	91	52.7	0	0	---	0.00	29.926 
05:00	55.1	55.1	55.1	91	52.5	0	0	---	0.00	29.930 
05:05	55.1	55.1	55.1	91	52.5	0	0	---	0.00	29.930 
05:10	55.1	55.1	55.1	91	52.5	0	0	---	0.00	29.930 
05:15	55.0	55.0	55.0	92	52.7	0	0	---	0.00	29.933 
05:20	55.0	55.0	55.0	92	52.7	0	0	---	0.00	29.933 
05:25	55.0	55.0	55.0	92	52.7	0	0	---	0.00	29.933 
05:30	55.0	55.0	55.0	92	52.7	0	0	---	0.00	29.944 
05:35	55.0	55.0	55.0	92	52.7	0	0	---	0.00	29.944 
05:40	55.1	55.1	55.1	92	52.8	0	0	---	0.00	29.944 
05:45	55.3	55.3	55.3	92	53.0	0	0	---	0.00	29.946 
05:50	55.6	55.6	55.6	92	53.3	0	0	---	0.00	29.946 
05:55	55.6	55.6	55.6	92	53.3	0	0	---	0.00	29.946 
06:00	55.7	55.7	55.7	93	53.7	0	0	---	0.00	29.941 
06:05	56.0	56.0	56.0	93	54.0	0	0	---	0.00	29.941 
06:10	56.2	56.2	56.2	93	54.2	0	0	---	0.00	29.941 
06:15	56.5	56.5	56.5	93	54.5	0	0	---	0.00	29.945 
06:20	56.7	56.7	56.7	93	54.7	0	0	---	0.00	29.945 
06:25	57.2	57.2	57.2	93	55.2	0	1	315	0.00	29.945 
06:30	57.5	57.5	57.5	93	55.5	0	0	---	0.00	29.947 
06:35	57.8	57.8	57.8	92	55.5	0	0	---	0.00	29.947 
06:40	58.0	58.0	58.0	92	55.7	0	0	---	0.00	29.947 
06:45	58.1	58.1	58.1	92	55.8	0	0	---	0.00	29.944 
06:50	58.1	58.1	58.1	92	55.8	0	0	---	0.00	29.944 
06:55	58.3	58.3	58.3	92	56.0	0	0	---	0.00	29.944 
07:00	58.4	58.4	58.4	91	55.8	0	0	---	0.00	29.934 
07:05	58.6	58.6	58.6	91	56.0	0	0	---	0.00	29.934 
07:10	58.7	58.7	58.7	91	56.1	0	0	---	0.00	29.934 
07:15	59.0	59.0	59.0	90	56.1	0	0	---	0.00	29.933 
07:20	59.3	59.3	59.3	89	56.1	0	0	---	0.00	29.933 
07:25	59.5	59.5	59.5	88	55.9	0	0	---	0.00	29.933 
07:30	59.8	59.8	59.8	88	56.2	0	0	---	0.00	29.933 
07:35	59.9	59.9	59.9	87	56.0	0	0	---	0.00	29.933 
07:40	60.1	60.1	60.1	86	55.9	0	0	---	0.00	29.933 
07:45	60.4	60.4	60.4	86	56.2	0	0	---	0.00	29.929 
07:50	60.5	60.5	60.5	85	56.0	0	0	---	0.00	29.929 
07:55	60.7	60.7	60.7	85	56.2	0	0	---	0.00	29.929 
08:00	61.0	61.0	61.0	85	56.5	0	0	---	0.00	29.927 
08:05	61.3	61.3	61.3	84	56.4	0	0	---	0.00	29.927 
08:10	61.5	61.5	61.5	83	56.3	0	0	---	0.00	29.927 
08:15	61.8	61.8	61.8	83	56.6	0	0	---	0.00	29.923 
08:20	62.1	62.1	62.1	82	56.5	0	0	---	0.00	29.923 
08:25	62.1	62.1	62.1	81	56.2	0	1	315	0.00	29.923 
08:30	62.3	62.3	62.3	80	56.0	0	1	315	0.00	29.919 
08:35	62.4	62.4	62.4	79	55.8	0	0	---	0.00	29.919 
08:40	62.6	62.6	62.6	78	55.6	0	1	315	0.00	29.919 
08:45	62.6	62.6	62.6	78	55.6	0	1	315	0.00	29.935 
08:50	62.9	62.9	62.9	77	55.6	0	1	315	0.00	29.935 
08:55	63.1	63.1	63.1	78	56.1	0	0	---	0.00	29.935 
09:00	63.1	63.1	63.1	79	56.5	0	1	315	0.01	29.945 
09:05	62.9	62.9	62.9	80	56.6	0	1	315	0.00	29.945 
09:10	62.6	62.6	62.6	81	56.7	0	1	315	0.01	29.945 
09:15	62.3	62.3	62.3	83	57.1	0	2	315	0.01	29.948 
09:20	62.0	62.0	62.0	85	57.4	0	1	315	0.01	29.948 
09:25	61.6	61.6	61.6	86	57.4	0	1	315	0.00	29.948 
09:30	61.5	61.5	61.5	87	57.6	0	1	315	0.00	29.947 
09:35	61.5	61.5	61.5	88	57.9	0	1	315	0.00	29.947 
09:40	61.5	61.5	61.5	88	57.9	0	1	315	0.00	29.947 
09:45	61.5	61.5	61.5	89	58.2	0	0	---	0.00	29.942 
09:50	61.6	61.6	61.6	89	58.3	0	0	---	0.00	29.942 
09:55	61.8	61.8	61.8	90	58.8	0	0	---	0.00	29.942 
10:00	62.0	62.0	62.0	90	59.0	0	1	315	0.00	29.937 
10:05	62.1	62.1	62.1	90	59.1	0	0	---	0.00	29.937 
10:10	62.3	62.3	62.3	90	59.3	0	0	---	0.00	29.937 
10:15	62.3	62.3	62.3	90	59.3	0	0	---	0.00	29.952 
10:20	62.3	62.3	62.3	90	59.3	0	0	---	0.00	29.952 
10:25	62.3	62.3	62.3	91	59.6	0	0	---	0.00	29.952 
10:30	62.4	62.4	62.4	91	59.7	0	1	315	0.00	29.974 
10:35	62.3	62.3	62.3	91	59.6	0	1	315	0.00	29.974 
10:40	62.0	62.0	62.0	91	59.3	0	1	315	0.00	29.974 
10:45	62.0	62.0	62.0	91	59.3	0	3	315	0.01	29.999 
10:50	61.6	61.6	61.6	91	58.9	0	3	315	0.01	29.999 
10:55	61.6	61.6	61.6	92	59.2	0	1	315	0.01	29.999 
11:00	61.6	61.6	61.6	92	59.2	0	1	315	0.01	29.998 
11:05	61.5	61.5	61.5	92	59.2	0	0	---	0.00	29.998 
11:10	61.8	61.8	61.8	92	59.4	0	1	315	0.01	29.998 
11:15	62.1	62.1	62.1	93	60.0	0	1	315	0.00	29.968 
11:20	62.3	62.3	62.3	93	60.2	0	1	315	0.01	29.968 
11:25	62.4	62.4	62.4	93	60.3	0	0	---	0.00	29.968 
11:30	62.6	62.6	62.6	93	60.5	0	0	---	0.00	29.982 
11:35	62.6	62.6	62.6	93	60.5	0	1	315	0.00	29.982 
11:40	62.6	62.6	62.6	92	60.2	0	0	---	0.01	29.982 
11:45	62.6	62.6	62.6	93	60.5	0	0	---	0.01	29.986 
11:50	62.6	62.6	62.6	93	60.5	0	0	---	0.02	29.986 
11:55	62.6	62.6	62.6	93	60.5	0	0	---	0.02	29.986 
12:00	62.7	62.7	62.7	93	60.6	0	0	---	0.01	29.984 
12:05	62.7	62.7	62.7	93	60.6	0	1	315	0.02	29.984 
12:10	62.6	62.6	62.6	93	60.5	0	1	315	0.02	29.984 
12:15	62.4	62.4	62.4	93	60.3	0	1	315	0.01	29.989 
12:20	62.4	62.4	62.4	93	60.3	0	0	---	0.01	29.989 
12:25	62.4	62.4	62.4	93	60.3	0	1	315	0.00	29.989 
12:30	62.4	62.4	62.4	93	60.3	0	0	---	0.01	29.970 
12:35	62.7	62.7	62.7	94	60.9	0	1	315	0.00	29.970 
12:40	63.1	63.1	63.1	94	61.3	0	2	315	0.01	29.970 
12:45	63.4	63.4	63.4	94	61.6	0	2	315	0.00	29.969 
12:50	63.5	63.5	63.5	93	61.4	0	1	315	0.00	29.969 
12:55	63.4	63.4	63.4	93	61.3	0	1	315	0.01	29.969 
13:00	63.2	63.2	63.2	93	61.1	0	1	315	0.00	29.970 
13:05	63.1	63.1	63.1	93	61.0	0	1	315	0.02	29.970 
13:10	63.2	63.2	63.2	94	61.4	0	1	315	0.00	29.970 
13:15	63.2	63.2	63.2	93	61.1	0	1	315	0.01	29.970 
13:20	63.2	63.2	63.2	93	61.1	0	1	315	0.01	29.970 
13:25	63.4	63.4	63.4	94	61.6	0	1	315	0.00	29.970 
13:30	63.4	63.4	63.4	94	61.6	0	1	315	0.01	29.965 
13:35	63.4	63.4	63.4	93	61.3	0	1	315	0.03	29.965 
13:40	63.2	63.2	63.2	93	61.1	0	2	22	0.04	29.965 
13:45	63.1	63.1	63.1	93	61.0	0	1	22	0.00	29.943 
13:50	62.9	62.9	62.9	93	60.8	0	1	22	0.00	29.943 
13:55	62.9	62.9	62.9	93	60.8	0	2	22	0.00	29.943 
14:00	63.1	63.1	63.1	94	61.3	0	1	22	0.00	29.931 
14:05	63.2	63.2	63.2	93	61.1	0	1	22	0.00	29.931 
14:10	63.4	63.4	63.4	93	61.3	0	2	22	0.00	29.931 
14:15	63.2	63.2	63.2	93	61.1	0	1	22	0.01	29.961 
14:20	63.2	63.2	63.2	93	61.1	0	1	22	0.09	29.961 
14:25	63.2	63.2	63.2	93	61.1	0	1	22	0.05	29.961 
14:30	63.2	63.2	63.2	94	61.4	0	1	22	0.02	29.925 
14:35	63.4	63.4	63.4	94	61.6	0	2	90	0.00	29.925 
14:40	64.5	64.5	64.5	95	63.0	0	2	90	0.00	29.925 
14:45	65.6	65.6	65.6	95	64.1	0	2	135	0.00	29.906 
14:50	66.8	66.8	66.8	95	65.3	0	3	135	0.00	29.906 
14:55	67.3	67.3	67.3	94	65.5	1	4	90	0.00	29.906 
15:00	67.9	67.9	67.9	93	65.8	1	3	112	0.00	29.901 
15:05	68.4	68.4	68.4	92	66.0	1	3	112	0.00	29.901 
15:10	69.1	69.1	69.1	92	66.7	0	2	270	0.00	29.901 
15:15	69.6	69.6	69.6	91	66.8	0	2	270	0.00	29.903 
15:20	69.8	69.8	69.8	89	66.4	1	4	45	0.00	29.903 
15:25	70.1	70.1	70.1	88	66.4	1	5	90	0.00	29.903 
15:30	70.6	70.6	70.6	88	66.9	0	3	90	0.00	29.893 
15:35	71.3	71.3	71.3	88	67.6	0	2	45	0.00	29.893 
15:40	72.1	72.1	72.1	88	68.3	0	2	45	0.00	29.893 
15:45	72.8	72.8	72.8	85	68.0	0	2	45	0.00	29.883 
15:50	73.2	73.2	73.2	84	68.1	0	2	45	0.00	29.883 
15:55	74.2	74.2	74.2	85	69.4	0	2	292	0.00	29.883 
16:00	75.1	75.1	75.6	81	68.9	1	4	292	0.00	29.871 
16:05	75.6	75.6	76.6	78	68.2	0	3	270	0.00	29.871 
16:10	75.8	75.8	77.0	76	67.7	0	3	270	0.00	29.871 
16:15	76.5	76.5	77.9	77	68.7	0	3	270	0.00	29.858 
16:20	77.6	77.6	79.6	74	68.6	0	5	90	0.00	29.858 
16:25	78.5	78.5	80.7	70	67.9	1	3	270	0.00	29.858 
16:30	79.0	79.0	81.2	67	67.1	1	3	270	0.00	29.846 
16:35	78.8	78.8	80.9	67	66.9	1	3	270	0.00	29.846 
16:40	78.5	78.5	80.5	67	66.6	1	6	270	0.00	29.846 
16:45	78.1	78.1	80.0	67	66.2	1	6	270	0.00	29.842 
16:50	77.7	77.7	79.6	67	65.8	1	3	248	0.00	29.842 
16:55	77.2	77.2	79.0	69	66.2	1	3	270	0.00	29.842 
17:00	76.7	76.7	78.4	71	66.6	1	3	270	0.00	29.850 
17:05	76.0	76.0	77.4	75	67.5	0	2	270	0.01	29.850 
17:10	74.9	74.9	74.9	78	67.6	0	4	270	0.01	29.850 
17:15	74.0	74.0	74.0	81	67.8	0	2	270	0.00	29.862 
17:20	73.3	73.3	73.3	83	67.8	0	2	315	0.06	29.862 
17:25	72.7	72.7	72.7	85	67.9	1	7	315	0.05	29.862 
17:30	71.5	71.5	71.5	87	67.4	3	10	270	0.01	29.881 
17:35	70.6	70.6	70.6	88	66.9	1	5	248	0.02	29.881 
17:40	70.1	70.1	70.1	89	66.7	1	3	248	0.03	29.881 
17:45	69.8	69.8	69.8	90	66.7	0	2	270	0.01	29.870 
17:50	69.8	69.8	69.8	91	67.0	1	3	270	0.00	29.870 
17:55	69.6	69.6	69.6	92	67.2	0	1	270	0.00	29.870 
18:00	69.4	69.4	69.4	92	67.0	1	3	270	0.00	29.870 
18:05	69.4	69.4	69.4	92	67.0	0	2	270	0.00	29.870 
18:10	69.4	69.4	69.4	92	67.0	0	2	270	0.00	29.870 
18:15	69.3	69.3	69.3	92	66.9	1	2	270	0.04	29.878 
18:20	69.1	69.1	69.1	93	67.0	0	3	270	0.09	29.878 
18:25	68.8	68.8	68.8	93	66.7	0	3	270	0.05	29.878 
18:30	68.4	68.4	68.4	93	66.3	0	1	338	0.06	29.856 
18:35	68.3	68.3	68.3	93	66.2	0	1	338	0.00	29.856 
18:40	68.1	68.1	68.1	93	66.0	0	1	338	0.02	29.856 
18:45	68.1	68.1	68.1	94	66.3	0	1	338	0.00	29.873 
18:50	68.1	68.1	68.1	94	66.3	0	1	338	0.02	29.873 
18:55	68.1	68.1	68.1	94	66.3	0	1	338	0.06	29.873 
19:00	67.9	67.9	67.9	94	66.1	1	3	338	0.01	29.873 
19:05	67.9	67.9	67.9	94	66.1	3	7	338	0.01	29.873 
19:10	65.6	65.6	65.6	92	63.2	5	13	338	0.00	29.873 
19:15	65.0	65.0	65.0	91	62.3	2	7	292	0.22	29.886 
19:20	64.7	64.7	64.7	91	62.0	0	2	248	0.05	29.886 
19:25	64.3	64.3	64.3	92	61.9	0	2	248	0.03	29.886 
19:30	64.3	64.3	64.3	92	61.9	0	1	248	0.01	29.883 
19:35	64.2	64.2	64.2	92	61.8	0	1	248	0.00	29.883 
19:40	64.2	64.2	64.2	93	62.1	0	3	248	0.01	29.883 
19:45	64.3	64.3	64.3	93	62.2	0	2	248	0.00	29.890 
19:50	64.5	64.5	64.5	94	62.7	0	3	248	0.00	29.890 
19:55	64.5	64.5	64.5	94	62.7	0	3	225	0.00	29.890 
20:00	64.5	64.5	64.5	94	62.7	0	1	225	0.00	29.887 
20:05	64.3	64.3	64.3	94	62.5	0	2	225	0.04	29.887 
20:10	64.3	64.3	64.3	94	62.5	0	3	225	0.03	29.887 
20:15	64.3	64.3	64.3	94	62.5	0	1	225	0.01	29.899 
20:20	64.3	64.3	64.3	95	62.8	0	1	225	0.00	29.899 
20:25	64.5	64.5	64.5	95	63.0	0	2	225	0.01	29.899 
20:30	64.7	64.7	64.7	95	63.2	0	2	225	0.07	29.907 
20:35	64.8	64.8	64.8	95	63.3	0	1	225	0.05	29.907 
20:40	65.2	65.2	65.2	95	63.7	0	1	225	0.04	29.907 
20:45	65.3	65.3	65.3	95	63.8	0	1	225	0.04	29.900 
20:50	65.8	65.8	65.8	96	64.6	0	3	248	0.03	29.900 
20:55	66.0	66.0	66.0	95	64.5	0	2	270	0.02	29.900 
21:00	66.1	66.1	66.1	95	64.6	0	2	270	0.02	29.886 
21:05	66.4	66.4	66.4	96	65.2	1	2	270	0.00	29.886 
21:10	66.4	66.4	66.4	96	65.2	0	1	270	0.01	29.886 
21:15	66.4	66.4	66.4	95	64.9	0	1	270	0.00	29.884 
21:20	66.3	66.3	66.3	95	64.8	0	1	270	0.00	29.884 
21:25	66.1	66.1	66.1	95	64.6	0	1	270	0.00	29.884 
21:30	66.1	66.1	66.1	95	64.6	0	1	270	0.00	29.889 
21:35	66.1	66.1	66.1	96	64.9	0	1	270	0.00	29.889 
21:40	66.1	66.1	66.1	96	64.9	0	1	270	0.00	29.889 
21:45	66.0	66.0	66.0	96	64.8	0	1	270	0.00	29.893 
21:50	66.0	66.0	66.0	96	64.8	0	2	270	0.10	29.893 
21:55	66.0	66.0	66.0	96	64.8	1	2	270	0.09	29.893 
22:00	66.0	66.0	66.0	96	64.8	1	3	270	0.24	29.925 
22:05	66.1	66.1	66.1	96	64.9	0	2	270	0.05	29.925 
22:10	66.4	66.4	66.4	96	65.2	1	4	270	0.14	29.925 
22:15	65.3	65.3	65.3	95	63.8	1	5	292	0.23	29.931 
22:20	65.0	65.0	65.0	96	63.8	0	1	292	0.11	29.931 
22:25	65.0	65.0	65.0	96	63.8	0	1	292	0.01	29.931 
22:30	65.0	65.0	65.0	96	63.8	0	0	---	0.00	29.927 
22:35	65.3	65.3	65.3	96	64.1	0	0	---	0.01	29.927 
22:40	65.6	65.6	65.6	96	64.4	0	0	---	0.01	29.927 
22:45	66.1	66.1	66.1	96	64.9	0	1	292	0.01	29.914 
22:50	66.4	66.4	66.4	96	65.2	0	1	292	0.01	29.914 
22:55	66.6	66.6	66.6	96	65.4	0	1	292	0.03	29.914 
23:00	66.8	66.8	66.8	96	65.6	0	0	---	0.01	29.907 
23:05	66.9	66.9	66.9	96	65.7	0	0	---	0.01	29.907 
23:10	66.9	66.9	66.9	96	65.7	0	0	---	0.01	29.907 
23:15	66.9	66.9	66.9	96	65.7	0	0	---	0.00	29.915 
23:20	66.9	66.9	66.9	96	65.7	0	0	---	0.00	29.915 
23:25	66.9	66.9	66.9	96	65.7	0	1	292	0.01	29.915 
23:30	66.9	66.9	66.9	96	65.7	0	1	292	0.00	29.914 
23:35	66.9	66.9	66.9	96	65.7	0	0	---	0.00	29.914 
23:40	66.9	66.9	66.9	96	65.7	0	0	---	0.00	29.914 
23:45	67.1	67.1	67.1	96	65.9	0	1	292	0.01	29.922 
23:50	66.9	66.9	66.9	96	65.7	0	1	292	0.00	29.922 
23:55	66.9	66.9	66.9	96	65.7	0	0	---	0.00	29.922 

CoCoRaHS
IN-AL-39
A2 Web Hosting
Creative Commons License
GoDaddy
search engine by freefind advanced

loaded 2018-11-17 18:13:52 • last modified 2010-11-18 10:43:29
Privacy PolicyDisclaimer
• wx.awcolley.com is powered by PmWiki v.2002016 •
• all content (unless otherwise noted) © 2018 A W Colley